Rushford, Minnesota
Current Conditions -  °F | °C
As of 3:54 PM on Monday 22 Dec 2014 (Local Time) from KONA Reporting Station
Haze Haze  
Wind Chill: 31°   Ceiling: 1500
Heat Index: 37°   Visibility: 4mi
Dew Point: 36°   Wind: 8mph
Humidity: 93%   Direction: 120°ESE
Pressure: 29.63"   Gusts: NA
Location:  43.81°N, 91.75°W
Report Text: KONA 222154Z AUTO 12007KT 4SM BR OVC015 03/02 A2963 RMK AO2
Loading
Personal Weather Stations






























Interactive Weather Map New forecast layout! Learn more

10-Day Weather Forecast

Advertisements
Track Severe Weather on mobile